createdAt,value
2023-05-19T00:03:46.506Z,1973
2023-05-19T00:09:04.642Z,1985
2023-05-19T00:14:22.809Z,1997
2023-05-19T00:19:40.970Z,2008
2023-05-19T00:24:59.527Z,2010
2023-05-19T00:30:17.746Z,2017
2023-05-19T00:35:36.142Z,2018
2023-05-19T00:40:54.495Z,2013
2023-05-19T00:46:12.922Z,2020
2023-05-19T00:51:31.177Z,2012
2023-05-19T00:56:49.321Z,2018
2023-05-19T01:02:07.400Z,2015
2023-05-19T01:07:25.697Z,2013
2023-05-19T01:12:43.850Z,2022
2023-05-19T01:18:02.267Z,2020
2023-05-19T01:23:20.740Z,2023
2023-05-19T01:28:38.867Z,2018
2023-05-19T01:33:57.283Z,2010
2023-05-19T01:39:15.493Z,2010
2023-05-19T01:44:33.614Z,2015
2023-05-19T01:49:51.806Z,2010
2023-05-19T01:55:10.144Z,2011
2023-05-19T02:00:28.482Z,1998
2023-05-19T02:05:46.676Z,1987
2023-05-19T02:11:05.286Z,1984
2023-05-19T02:16:23.629Z,1979
2023-05-19T02:21:42.293Z,1979
2023-05-19T02:27:00.658Z,1958
2023-05-19T02:32:18.873Z,1955
2023-05-19T02:37:37.103Z,1951
2023-05-19T02:42:55.100Z,1929
2023-05-19T02:48:13.400Z,1907
2023-05-19T02:53:31.842Z,1885
2023-05-19T02:58:50.220Z,1869
2023-05-19T03:04:08.189Z,1874
2023-05-19T03:09:27.082Z,1879
2023-05-19T03:14:45.309Z,1881
2023-05-19T03:20:03.634Z,1882
2023-05-19T03:25:21.619Z,1880
2023-05-19T03:30:39.978Z,1875
2023-05-19T03:35:58.325Z,1875
2023-05-19T03:41:16.731Z,1862
2023-05-19T03:46:35.140Z,1869
2023-05-19T03:51:53.265Z,1855
2023-05-19T03:57:12.005Z,1843
2023-05-19T04:02:30.143Z,1608
2023-05-19T04:07:48.873Z,1203
2023-05-19T04:13:06.846Z,1148
2023-05-19T04:18:25.871Z,1114
2023-05-19T04:23:47.292Z,1154
2023-05-19T04:29:05.512Z,1180
2023-05-19T04:34:24.018Z,1201
2023-05-19T04:39:42.534Z,1206
2023-05-19T04:45:00.896Z,1208
2023-05-19T04:50:19.020Z,1204
2023-05-19T04:55:37.576Z,1195
2023-05-19T05:00:55.928Z,1191
2023-05-19T05:06:14.226Z,1183
2023-05-19T05:11:32.601Z,1177
2023-05-19T05:16:51.150Z,1178
2023-05-19T05:22:09.466Z,1179
2023-05-19T05:27:27.809Z,1186
2023-05-19T05:32:46.303Z,1181
2023-05-19T05:38:05.388Z,1178
2023-05-19T05:43:25.138Z,1172
2023-05-19T05:48:43.548Z,1162
2023-05-19T05:54:01.948Z,1158
2023-05-19T05:59:20.469Z,1147
2023-05-19T06:04:38.863Z,1126
2023-05-19T06:09:57.050Z,1074
2023-05-19T06:15:15.380Z,1043
2023-05-19T06:20:33.700Z,1012
2023-05-19T06:25:51.521Z,980
2023-05-19T06:31:10.105Z,948
2023-05-19T06:36:12.715Z,943
2023-05-19T06:41:31.068Z,940
2023-05-19T06:46:49.954Z,954
2023-05-19T06:52:08.330Z,959
2023-05-19T06:57:27.634Z,965
2023-05-19T07:02:45.944Z,973
2023-05-19T07:08:05.361Z,981
2023-05-19T07:13:25.373Z,981
2023-05-19T07:18:45.948Z,984
2023-05-19T07:24:04.297Z,983
2023-05-19T07:29:22.766Z,985
2023-05-19T07:34:41.087Z,988
2023-05-19T07:39:59.649Z,988
2023-05-19T07:45:17.808Z,989
2023-05-19T07:50:36.211Z,997
2023-05-19T07:55:55.859Z,1009
2023-05-19T08:01:16.815Z,1007
2023-05-19T08:06:35.736Z,1012
2023-05-19T08:11:54.366Z,1013
2023-05-19T08:17:12.736Z,1016
2023-05-19T08:22:31.427Z,1019
2023-05-19T08:27:50.085Z,1017
2023-05-19T08:33:08.706Z,1018
2023-05-19T08:38:27.204Z,1022
2023-05-19T08:43:45.876Z,1020
2023-05-19T08:49:03.940Z,1013
2023-05-19T08:54:22.346Z,1010
2023-05-19T08:59:40.757Z,1006
2023-05-19T09:04:59.061Z,1003
2023-05-19T09:10:18.383Z,993
2023-05-19T09:15:36.952Z,989
2023-05-19T09:20:55.417Z,983
2023-05-19T09:26:13.567Z,979
2023-05-19T09:31:32.304Z,974
2023-05-19T09:36:50.374Z,966
2023-05-19T09:42:08.769Z,968
2023-05-19T09:47:27.137Z,968
2023-05-19T09:52:45.625Z,956
2023-05-19T09:58:03.857Z,955
2023-05-19T10:03:22.563Z,950
2023-05-19T10:08:41.238Z,944
2023-05-19T10:13:59.220Z,934
2023-05-19T10:19:18.628Z,930
2023-05-19T10:24:36.741Z,919
2023-05-19T10:29:54.966Z,908
2023-05-19T10:35:13.510Z,908
2023-05-19T10:40:32.040Z,904
2023-05-19T10:45:50.395Z,901
2023-05-19T10:51:08.470Z,895
2023-05-19T10:56:26.784Z,896
2023-05-19T11:01:45.233Z,895
2023-05-19T11:07:03.926Z,896
2023-05-19T11:12:24.589Z,892
2023-05-19T11:17:43.978Z,892
2023-05-19T11:23:08.144Z,889
2023-05-19T11:28:27.036Z,895
2023-05-19T11:33:45.272Z,916
2023-05-19T11:39:03.852Z,928
2023-05-19T11:44:21.990Z,928
2023-05-19T11:49:40.175Z,928
2023-05-19T11:54:58.545Z,934
2023-05-19T12:00:16.694Z,935
2023-05-19T12:05:38.612Z,932
2023-05-19T12:11:01.842Z,921
2023-05-19T12:16:20.429Z,904
2023-05-19T12:21:39.047Z,886
2023-05-19T12:26:41.918Z,870
2023-05-19T12:32:00.472Z,860
2023-05-19T12:37:18.803Z,845
2023-05-19T12:42:37.199Z,834
2023-05-19T12:47:55.562Z,825
2023-05-19T12:53:14.615Z,825
2023-05-19T12:58:33.232Z,818
2023-05-19T13:03:51.524Z,811
2023-05-19T13:09:10.712Z,809
2023-05-19T13:14:28.873Z,801
2023-05-19T13:19:47.212Z,864
2023-05-19T13:25:05.703Z,925
2023-05-19T13:30:23.882Z,947
2023-05-19T13:35:42.026Z,960
2023-05-19T13:41:00.400Z,974
2023-05-19T13:46:22.129Z,972
2023-05-19T13:52:04.396Z,974
2023-05-19T13:57:22.364Z,969
2023-05-19T14:02:25.144Z,507
2023-05-19T14:07:43.651Z,557
2023-05-19T14:18:53.573Z,700
2023-05-19T14:24:12.288Z,731
2023-05-19T14:29:30.965Z,750
2023-05-19T14:34:49.320Z,764
2023-05-19T14:40:07.726Z,768
2023-05-19T14:45:25.942Z,786
2023-05-19T14:50:29.286Z,813
2023-05-19T14:55:47.790Z,836
2023-05-19T15:01:06.160Z,853
2023-05-19T15:06:24.905Z,874
2023-05-19T15:11:43.240Z,924
2023-05-19T15:17:01.933Z,966
2023-05-19T15:22:20.747Z,980
2023-05-19T15:27:39.092Z,990
2023-05-19T15:32:57.552Z,994
2023-05-19T15:38:15.940Z,1004
2023-05-19T15:43:34.237Z,1010
2023-05-19T15:48:55.388Z,1014
2023-05-19T15:54:13.620Z,1019
2023-05-19T15:59:16.370Z,1028
2023-05-19T16:04:34.764Z,1036
2023-05-19T16:09:53.205Z,1044
2023-05-19T16:15:11.772Z,1052
2023-05-19T16:20:30.112Z,1063
2023-05-19T16:25:48.265Z,1076
2023-05-19T16:31:06.508Z,1098
2023-05-19T16:36:25.036Z,1101
2023-05-19T16:41:43.531Z,1112
2023-05-19T16:47:02.129Z,1122
2023-05-19T16:52:23.307Z,1129
2023-05-19T16:57:42.308Z,1141
2023-05-19T17:03:00.734Z,1149
2023-05-19T17:08:20.080Z,1156
2023-05-19T17:13:38.780Z,1164
2023-05-19T17:18:56.932Z,1169
2023-05-19T17:24:15.496Z,1180
2023-05-19T17:29:33.452Z,1187
2023-05-19T17:34:54.953Z,1183
2023-05-19T17:40:13.594Z,1182
2023-05-19T17:45:32.177Z,1190
2023-05-19T17:50:50.346Z,1192
2023-05-19T17:56:08.705Z,1200
2023-05-19T18:01:27.296Z,1206
2023-05-19T18:06:45.699Z,1215
2023-05-19T18:12:03.866Z,1195
2023-05-19T18:17:22.739Z,1199
2023-05-19T18:22:41.145Z,1200
2023-05-19T18:27:59.450Z,1207
2023-05-19T18:33:17.840Z,1207
2023-05-19T18:38:36.165Z,1210
2023-05-19T18:43:54.803Z,1206
2023-05-19T18:49:13.272Z,1207
2023-05-19T18:54:32.814Z,1192
2023-05-19T18:59:51.349Z,1181
2023-05-19T19:04:54.326Z,1164
2023-05-19T19:10:12.780Z,1161
2023-05-19T19:15:31.266Z,1161
2023-05-19T19:20:49.841Z,1159
2023-05-19T19:26:09.059Z,1155
2023-05-19T19:31:27.532Z,1165
2023-05-19T19:36:45.928Z,1177
2023-05-19T19:42:04.058Z,1183
2023-05-19T19:47:22.671Z,1192
2023-05-19T19:52:41.034Z,1214
2023-05-19T19:57:59.393Z,1219
2023-05-19T20:03:20.752Z,1228
2023-05-19T20:08:39.645Z,1246
2023-05-19T20:13:57.879Z,1261
2023-05-19T20:19:16.340Z,1274
2023-05-19T20:24:34.482Z,1293
2023-05-19T20:29:53.557Z,1312
2023-05-19T20:35:11.605Z,1321
2023-05-19T20:40:29.851Z,1325
2023-05-19T20:45:48.720Z,1339
2023-05-19T20:51:07.307Z,1346
2023-05-19T20:56:26.033Z,1361
2023-05-19T21:01:44.278Z,1381
2023-05-19T21:07:02.933Z,1384
2023-05-19T21:12:21.870Z,1375
2023-05-19T21:17:40.464Z,1360
2023-05-19T21:22:58.606Z,1342
2023-05-19T21:28:16.795Z,1329
2023-05-19T21:33:35.147Z,1307
2023-05-19T21:38:53.613Z,1294
2023-05-19T21:44:11.819Z,1296
2023-05-19T21:49:29.971Z,1284
2023-05-19T21:54:48.303Z,1248
2023-05-19T22:00:06.512Z,1255
2023-05-19T22:05:25.019Z,1251
2023-05-19T22:10:43.371Z,1249
2023-05-19T22:16:01.936Z,1243
2023-05-19T22:21:20.357Z,1240
2023-05-19T22:26:38.974Z,1240
2023-05-19T22:31:57.569Z,1249
2023-05-19T22:37:15.706Z,1253
2023-05-19T22:42:33.855Z,1265
2023-05-19T22:47:52.016Z,1289
2023-05-19T22:53:10.389Z,1300
2023-05-19T22:58:28.735Z,1308
2023-05-19T23:03:46.905Z,1317
2023-05-19T23:09:04.983Z,1321
2023-05-19T23:14:22.954Z,1320
2023-05-19T23:19:41.129Z,1325
2023-05-19T23:24:59.443Z,1328
2023-05-19T23:30:17.752Z,1333
2023-05-19T23:35:36.336Z,1425
2023-05-19T23:40:54.975Z,1421
2023-05-19T23:46:13.471Z,1444
2023-05-19T23:51:31.848Z,1476
2023-05-19T23:56:50.172Z,1508
